createdAt,value
2023-11-07T00:02:23.501Z,6.24
2023-11-07T00:04:57.181Z,6.21
2023-11-07T00:07:30.459Z,6.20
2023-11-07T00:10:03.028Z,6.18
2023-11-07T00:12:35.033Z,6.16
2023-11-07T00:15:08.160Z,6.15
2023-11-07T00:17:40.374Z,6.02
2023-11-07T00:20:13.753Z,5.95
2023-11-07T00:22:45.783Z,5.88
2023-11-07T00:25:18.565Z,5.81
2023-11-07T00:27:51.690Z,5.80
2023-11-07T00:30:23.744Z,5.70
2023-11-07T00:32:56.434Z,5.63
2023-11-07T00:35:29.337Z,5.54
2023-11-07T00:38:01.303Z,5.47
2023-11-07T00:40:33.338Z,5.38
2023-11-07T00:43:06.631Z,5.35
2023-11-07T00:45:41.661Z,5.36
2023-11-07T00:48:14.813Z,5.33
2023-11-07T00:50:46.887Z,5.31
2023-11-07T00:53:18.963Z,5.27
2023-11-07T00:55:51.105Z,5.24
2023-11-07T00:58:23.861Z,5.19
2023-11-07T01:00:55.958Z,5.15
2023-11-07T01:03:28.317Z,5.14
2023-11-07T01:06:00.256Z,5.13
2023-11-07T01:08:32.414Z,5.09
2023-11-07T01:11:04.664Z,5.07
2023-11-07T01:13:37.180Z,5.08
2023-11-07T01:16:12.142Z,5.10
2023-11-07T01:18:44.359Z,5.12
2023-11-07T01:21:16.540Z,5.10
2023-11-07T01:23:48.598Z,5.13
2023-11-07T01:26:20.615Z,5.16
2023-11-07T01:28:53.865Z,5.14
2023-11-07T01:31:26.673Z,5.13
2023-11-07T01:34:02.205Z,5.13
2023-11-07T01:36:34.856Z,5.10
2023-11-07T01:39:18.161Z,5.09
2023-11-07T01:41:50.184Z,5.10
2023-11-07T01:44:22.739Z,5.10
2023-11-07T01:46:55.254Z,5.18
2023-11-07T01:49:29.469Z,5.26
2023-11-07T01:52:01.662Z,5.35
2023-11-07T01:54:33.763Z,5.40
2023-11-07T01:57:07.178Z,5.39
2023-11-07T01:59:39.678Z,5.35
2023-11-07T05:36:09.790Z,5.94
2023-11-07T05:38:42.761Z,5.94
2023-11-07T05:41:15.790Z,5.94
2023-11-07T05:43:48.509Z,5.94
2023-11-07T05:46:23.487Z,5.93
2023-11-07T05:48:56.134Z,5.93
2023-11-07T05:51:29.086Z,5.93
2023-11-07T05:54:01.735Z,5.93
2023-11-07T05:56:34.529Z,5.94
2023-11-07T05:59:08.933Z,5.95
2023-11-07T06:01:41.576Z,5.94
2023-11-07T06:04:31.123Z,5.95
2023-11-07T06:07:04.828Z,5.99
2023-11-07T06:09:37.709Z,6.03
2023-11-07T06:12:12.813Z,6.04
2023-11-07T06:14:50.909Z,6.07
2023-11-07T06:17:51.045Z,6.07
2023-11-07T06:20:25.474Z,6.09
2023-11-07T06:22:57.986Z,6.11
2023-11-07T06:25:30.746Z,6.19
2023-11-07T06:28:03.887Z,6.28
2023-11-07T06:30:36.465Z,6.32
2023-11-07T06:33:11.378Z,6.35
2023-11-07T06:35:46.205Z,6.39
2023-11-07T06:38:22.742Z,6.44
2023-11-07T06:40:57.379Z,6.67
2023-11-07T06:43:29.959Z,6.99
2023-11-07T06:46:02.645Z,7.34
2023-11-07T06:48:35.540Z,7.63
2023-11-07T06:51:08.952Z,7.96
2023-11-07T06:53:41.903Z,8.26
2023-11-07T06:56:15.446Z,8.55
2023-11-07T06:58:49.048Z,8.81
2023-11-07T07:01:36.131Z,9.05
2023-11-07T07:04:37.178Z,9.18
2023-11-07T07:07:13.963Z,9.30
2023-11-07T07:09:49.651Z,9.49
2023-11-07T07:12:22.844Z,9.68
2023-11-07T07:14:55.857Z,9.92
2023-11-07T07:17:29.257Z,10.03
2023-11-07T07:20:02.323Z,10.12
2023-11-07T07:22:48.465Z,10.18
2023-11-07T07:25:22.657Z,10.24
2023-11-07T07:27:56.780Z,10.31
2023-11-07T07:30:29.673Z,10.44
2023-11-07T07:33:21.399Z,10.56
2023-11-07T07:35:58.748Z,10.61
2023-11-07T07:38:32.260Z,10.69
2023-11-07T07:41:06.781Z,10.73
2023-11-07T07:43:40.366Z,10.85
2023-11-07T07:46:14.801Z,10.92
2023-11-07T07:48:47.858Z,11.04
2023-11-07T07:51:20.686Z,11.19
2023-11-07T07:53:54.990Z,11.24
2023-11-07T07:56:27.597Z,11.27
2023-11-07T07:59:00.597Z,11.38
2023-11-07T08:01:35.111Z,11.47
2023-11-07T08:04:08.145Z,11.47
2023-11-07T08:06:40.768Z,11.56
2023-11-07T08:09:33.984Z,11.58
2023-11-07T08:12:13.711Z,11.63
2023-11-07T08:15:02.929Z,11.70
2023-11-07T08:17:35.518Z,11.75
2023-11-07T08:20:16.107Z,11.82
2023-11-07T08:22:49.662Z,11.92
2023-11-07T08:25:23.082Z,11.98
2023-11-07T08:27:55.910Z,12.06
2023-11-07T08:30:29.487Z,12.20
2023-11-07T08:33:02.416Z,12.27
2023-11-07T08:35:35.205Z,12.35
2023-11-07T08:38:07.971Z,12.46
2023-11-07T08:40:43.518Z,12.53
2023-11-07T08:43:16.502Z,12.58
2023-11-07T08:45:50.797Z,12.59
2023-11-07T08:48:27.152Z,12.66
2023-11-07T08:51:01.130Z,12.71
2023-11-07T08:53:35.554Z,12.79
2023-11-07T08:56:10.709Z,12.86
2023-11-07T08:58:45.083Z,12.93
2023-11-07T09:01:21.314Z,12.98
2023-11-07T09:03:57.350Z,13.06
2023-11-07T09:06:33.735Z,13.15
2023-11-07T09:09:08.931Z,13.23
2023-11-07T09:11:41.945Z,13.34
2023-11-07T09:14:14.493Z,13.44
2023-11-07T09:16:48.573Z,13.51
2023-11-07T09:19:21.631Z,13.40
2023-11-07T09:21:54.509Z,13.44
2023-11-07T09:24:27.228Z,13.52
2023-11-07T09:27:00.011Z,13.55
2023-11-07T09:30:17.913Z,13.56
2023-11-07T09:33:00.288Z,13.45
2023-11-07T09:35:34.547Z,13.57
2023-11-07T09:38:07.232Z,13.71
2023-11-07T09:40:42.140Z,13.88
2023-11-07T09:43:17.714Z,13.91
2023-11-07T09:45:58.790Z,14.01
2023-11-07T09:48:32.038Z,14.10
2023-11-07T09:51:09.034Z,14.21
2023-11-07T09:53:45.795Z,14.27
2023-11-07T09:56:18.489Z,14.27
2023-11-07T09:58:57.011Z,14.26
2023-11-07T10:01:29.494Z,14.32
2023-11-07T10:04:03.898Z,14.41
2023-11-07T10:06:39.523Z,14.31
2023-11-07T10:09:16.139Z,14.40
2023-11-07T10:11:55.036Z,14.40
2023-11-07T10:14:28.005Z,14.44
2023-11-07T10:17:05.815Z,14.52
2023-11-07T10:19:38.700Z,14.62
2023-11-07T10:22:11.474Z,14.67
2023-11-07T10:24:50.140Z,14.57
2023-11-07T10:27:32.816Z,14.65
2023-11-07T10:30:06.551Z,14.70
2023-11-07T10:32:55.719Z,14.71
2023-11-07T10:35:30.256Z,14.80
2023-11-07T10:38:13.895Z,14.90
2023-11-07T10:40:47.122Z,14.94
2023-11-07T10:43:33.716Z,14.90
2023-11-07T10:46:08.573Z,14.81
2023-11-07T10:48:43.151Z,14.86
2023-11-07T10:51:16.545Z,14.87
2023-11-07T10:53:49.191Z,14.87
2023-11-07T10:56:23.581Z,15.01
2023-11-07T10:59:05.148Z,14.85
2023-11-07T11:01:41.734Z,14.86
2023-11-07T11:04:15.330Z,14.85
2023-11-07T11:06:54.020Z,14.82
2023-11-07T11:09:28.097Z,14.89
2023-11-07T11:12:04.581Z,14.86
2023-11-07T11:14:39.346Z,14.87
2023-11-07T11:17:26.438Z,14.85
2023-11-07T11:20:04.396Z,14.78
2023-11-07T11:22:44.261Z,14.89
2023-11-07T11:25:29.010Z,14.92
2023-11-07T11:28:07.098Z,15.09
2023-11-07T11:30:43.654Z,15.07
2023-11-07T11:33:27.202Z,14.91
2023-11-07T11:36:00.346Z,14.93
2023-11-07T11:38:44.378Z,15.01
2023-11-07T11:41:17.108Z,15.01
2023-11-07T11:44:22.159Z,14.98
2023-11-07T11:46:55.163Z,14.94
2023-11-07T11:49:28.682Z,14.95
2023-11-07T11:52:08.136Z,14.90
2023-11-07T11:55:06.488Z,14.87
2023-11-07T11:58:21.400Z,14.90
2023-11-07T12:00:56.555Z,14.89
2023-11-07T12:03:37.649Z,14.91
2023-11-07T12:06:11.432Z,14.95
2023-11-07T12:08:45.501Z,14.85
2023-11-07T12:11:18.982Z,14.86
2023-11-07T12:13:53.298Z,14.87
2023-11-07T12:16:26.805Z,14.81
2023-11-07T12:18:59.900Z,14.68
2023-11-07T12:21:32.961Z,14.69
2023-11-07T12:24:05.856Z,14.77
2023-11-07T12:26:47.225Z,14.65
2023-11-07T12:29:33.462Z,14.65
2023-11-07T12:32:21.401Z,14.57
2023-11-07T12:34:57.048Z,14.49
2023-11-07T12:37:30.277Z,14.51
2023-11-07T12:40:05.117Z,14.49
2023-11-07T12:42:40.961Z,14.41
2023-11-07T12:45:14.445Z,14.32
2023-11-07T12:47:57.065Z,14.25
2023-11-07T12:50:34.828Z,14.25
2023-11-07T12:53:09.660Z,14.29
2023-11-07T12:55:42.365Z,14.23
2023-11-07T12:58:15.120Z,14.18
2023-11-07T13:01:01.104Z,14.10
2023-11-07T13:03:36.019Z,14.05
2023-11-07T13:06:12.552Z,14.06
2023-11-07T13:08:48.948Z,14.07
2023-11-07T13:11:25.612Z,14.05
2023-11-07T13:13:58.574Z,13.94
2023-11-07T13:16:31.993Z,13.86
2023-11-07T13:19:04.958Z,13.80
2023-11-07T13:21:39.288Z,13.74
2023-11-07T13:24:14.594Z,13.71
2023-11-07T13:26:48.522Z,13.66
2023-11-07T13:29:21.453Z,13.59
2023-11-07T13:31:57.817Z,13.54
2023-11-07T13:34:30.864Z,13.45
2023-11-07T13:37:06.199Z,13.41
2023-11-07T13:39:42.909Z,13.38
2023-11-07T13:42:15.730Z,13.37
2023-11-07T13:44:49.944Z,13.31
2023-11-07T13:47:22.796Z,13.26
2023-11-07T13:49:56.479Z,13.20
2023-11-07T13:52:29.088Z,13.17
2023-11-07T13:55:02.745Z,13.19
2023-11-07T13:57:35.342Z,13.18
2023-11-07T14:00:12.967Z,13.16
2023-11-07T14:02:46.509Z,13.15
2023-11-07T14:05:19.395Z,13.16
2023-11-07T14:07:53.366Z,13.19
2023-11-07T14:10:28.406Z,13.18
2023-11-07T14:13:02.411Z,13.21
2023-11-07T14:15:36.679Z,13.17
2023-11-07T14:18:16.288Z,13.14
2023-11-07T14:20:56.632Z,13.07
2023-11-07T14:23:30.038Z,13.02
2023-11-07T14:26:04.272Z,12.96
2023-11-07T14:28:43.513Z,12.93
2023-11-07T14:31:23.339Z,12.80
2023-11-07T14:33:56.385Z,12.75
2023-11-07T14:36:29.357Z,12.68
2023-11-07T14:39:03.889Z,12.62
2023-11-07T14:41:37.009Z,12.51
2023-11-07T14:44:11.278Z,12.34
2023-11-07T14:46:46.628Z,12.16
2023-11-07T14:49:19.765Z,11.99
2023-11-07T14:51:51.436Z,11.84
2023-11-07T14:54:24.150Z,11.63
2023-11-07T14:57:03.720Z,11.51
2023-11-07T14:59:39.058Z,11.36
2023-11-07T15:02:25.135Z,11.27
2023-11-07T15:05:00.444Z,11.19
2023-11-07T15:07:34.367Z,11.13
2023-11-07T15:10:09.437Z,11.01
2023-11-07T15:12:42.742Z,11.04
2023-11-07T15:15:17.179Z,11.00
2023-11-07T15:17:58.222Z,10.91
2023-11-07T15:20:34.371Z,10.82
2023-11-07T15:23:09.048Z,10.68
2023-11-07T15:25:42.368Z,10.57
2023-11-07T15:28:17.539Z,10.48
2023-11-07T15:30:50.389Z,10.41
2023-11-07T15:33:35.791Z,10.37
2023-11-07T15:36:20.185Z,10.32
2023-11-07T15:38:53.211Z,10.32
2023-11-07T15:41:26.862Z,10.30
2023-11-07T15:44:00.564Z,10.27
2023-11-07T15:46:33.522Z,10.25
2023-11-07T15:49:06.325Z,10.22
2023-11-07T15:51:39.769Z,10.20
2023-11-07T15:54:10.760Z,10.16
2023-11-07T15:56:49.401Z,9.98
2023-11-07T15:59:22.156Z,9.92
2023-11-07T16:01:56.978Z,9.85
2023-11-07T16:04:30.132Z,9.87
2023-11-07T16:07:03.083Z,9.84
2023-11-07T16:09:36.886Z,9.75
2023-11-07T16:12:11.110Z,9.72
2023-11-07T16:14:44.011Z,9.68
2023-11-07T16:17:16.852Z,9.62
2023-11-07T16:19:49.965Z,9.54
2023-11-07T16:22:22.835Z,9.40
2023-11-07T16:24:55.792Z,9.24
2023-11-07T16:27:29.385Z,9.13
2023-11-07T16:30:03.072Z,9.08
2023-11-07T16:32:34.388Z,8.99
2023-11-07T16:35:07.724Z,8.85
2023-11-07T16:38:14.469Z,8.83
2023-11-07T16:40:49.583Z,8.77
2023-11-07T16:43:22.060Z,8.70
2023-11-07T16:45:55.033Z,8.65
2023-11-07T16:48:29.481Z,8.55
2023-11-07T16:51:02.308Z,8.51
2023-11-07T16:53:37.770Z,8.49
2023-11-07T16:56:11.409Z,8.46
2023-11-07T16:58:44.859Z,8.45
2023-11-07T17:01:15.800Z,8.44
2023-11-07T17:03:48.705Z,8.36
2023-11-07T17:06:21.651Z,8.38
2023-11-07T17:08:54.545Z,8.36
2023-11-07T17:11:27.630Z,8.31
2023-11-07T17:14:01.834Z,8.22
2023-11-07T17:16:34.869Z,8.13
2023-11-07T17:19:07.662Z,8.11
2023-11-07T17:21:43.628Z,8.06
2023-11-07T17:24:17.769Z,8.04
2023-11-07T17:26:50.368Z,8.03
2023-11-07T17:29:24.598Z,7.98
2023-11-07T17:31:59.301Z,7.98
2023-11-07T17:34:32.975Z,7.97
2023-11-07T17:37:08.648Z,7.96
2023-11-07T17:39:42.534Z,7.92
2023-11-07T17:42:15.644Z,7.90
2023-11-07T17:44:49.435Z,7.89
2023-11-07T17:47:22.383Z,7.82
2023-11-07T17:49:54.942Z,7.74
2023-11-07T17:52:27.713Z,7.63
2023-11-07T17:55:01.385Z,7.49
2023-11-07T17:57:34.379Z,7.38
2023-11-07T18:00:11.716Z,7.27
2023-11-07T18:02:47.334Z,7.23
2023-11-07T18:05:20.292Z,7.19
2023-11-07T18:07:53.060Z,7.19
2023-11-07T18:10:28.301Z,7.23
2023-11-07T18:13:04.593Z,7.25
2023-11-07T18:15:37.143Z,7.26
2023-11-07T18:18:10.611Z,7.21
2023-11-07T18:20:41.591Z,7.17
2023-11-07T18:23:14.532Z,7.03
2023-11-07T18:25:47.276Z,7.05
2023-11-07T18:28:20.553Z,7.09
2023-11-07T18:30:56.313Z,7.10
2023-11-07T18:33:31.608Z,7.09
2023-11-07T18:36:06.793Z,7.05
2023-11-07T18:38:51.945Z,7.08
2023-11-07T18:41:30.272Z,7.10
2023-11-07T18:44:11.140Z,7.07
2023-11-07T18:46:46.212Z,7.05
2023-11-07T18:49:20.531Z,7.07
2023-11-07T18:51:53.326Z,7.07
2023-11-07T18:54:28.568Z,7.10
2023-11-07T18:57:02.707Z,7.09
2023-11-07T18:59:38.005Z,7.07
2023-11-07T19:02:11.533Z,7.03
2023-11-07T19:04:45.528Z,7.01
2023-11-07T19:07:18.644Z,7.04
2023-11-07T19:09:51.328Z,7.04
2023-11-07T19:12:25.856Z,7.01
2023-11-07T19:14:58.700Z,7.01
2023-11-07T19:17:33.639Z,6.99
2023-11-07T19:20:08.779Z,6.99
2023-11-07T19:22:43.603Z,6.97
2023-11-07T19:25:16.690Z,6.99
2023-11-07T19:27:52.960Z,6.98
2023-11-07T19:30:26.640Z,6.99
2023-11-07T19:32:58.706Z,7.03
2023-11-07T19:35:31.494Z,6.97
2023-11-07T19:38:04.180Z,7.00
2023-11-07T19:40:38.504Z,7.02
2023-11-07T19:43:11.312Z,7.04
2023-11-07T19:45:45.273Z,7.06
2023-11-07T19:48:18.928Z,7.07
2023-11-07T19:50:56.757Z,6.98
2023-11-07T19:53:30.260Z,6.99
2023-11-07T19:56:05.797Z,7.00
2023-11-07T19:58:57.258Z,7.01
2023-11-07T20:01:33.722Z,6.95
2023-11-07T20:04:10.456Z,6.92
2023-11-07T20:06:44.145Z,6.94
2023-11-07T20:09:17.265Z,6.94
2023-11-07T20:11:52.069Z,6.94
2023-11-07T20:14:30.216Z,6.94
2023-11-07T20:17:03.561Z,6.94
2023-11-07T20:19:37.117Z,6.95
2023-11-07T20:22:12.858Z,6.96
2023-11-07T20:24:47.431Z,6.96
2023-11-07T20:27:21.933Z,6.97
2023-11-07T20:29:57.357Z,7.00
2023-11-07T20:32:30.519Z,7.00
2023-11-07T20:35:03.323Z,6.95
2023-11-07T20:37:45.848Z,6.92
2023-11-07T20:40:18.821Z,6.91
2023-11-07T20:42:51.459Z,6.92
2023-11-07T20:45:24.012Z,6.89
2023-11-07T20:47:57.198Z,6.87
2023-11-07T20:50:30.281Z,6.83
2023-11-07T20:53:05.119Z,6.82
2023-11-07T20:55:39.073Z,6.83
2023-11-07T20:58:11.589Z,6.83
2023-11-07T21:00:44.341Z,6.83
2023-11-07T21:03:17.250Z,6.83
2023-11-07T21:05:52.798Z,6.85
2023-11-07T21:08:26.182Z,6.83
2023-11-07T21:10:59.021Z,6.82
2023-11-07T21:13:36.760Z,6.77
2023-11-07T21:16:10.613Z,6.76
2023-11-07T21:18:44.684Z,6.75
2023-11-07T21:21:19.030Z,6.73
2023-11-07T21:23:53.914Z,6.74
2023-11-07T21:26:26.747Z,6.70
2023-11-07T21:29:01.974Z,6.74
2023-11-07T21:31:38.245Z,6.75
2023-11-07T21:34:11.114Z,6.76
2023-11-07T21:36:44.338Z,6.76
2023-11-07T21:39:22.629Z,6.74
2023-11-07T21:41:55.200Z,6.74
2023-11-07T21:44:28.172Z,6.73
2023-11-07T21:47:01.914Z,6.72
2023-11-07T21:49:40.283Z,6.70
2023-11-07T21:52:13.459Z,6.69
2023-11-07T21:54:46.606Z,6.66
2023-11-07T21:57:20.374Z,6.65
2023-11-07T21:59:53.850Z,6.64
2023-11-07T22:02:26.355Z,6.62
2023-11-07T22:04:59.169Z,6.64
2023-11-07T22:07:31.825Z,6.63
2023-11-07T22:10:06.031Z,6.62
2023-11-07T22:12:39.040Z,6.58
2023-11-07T22:15:15.407Z,6.58
2023-11-07T22:17:48.497Z,6.57
2023-11-07T22:20:21.490Z,6.56
2023-11-07T22:22:54.324Z,6.57
2023-11-07T22:25:27.155Z,6.57
2023-11-07T22:27:59.909Z,6.59
2023-11-07T22:30:33.102Z,6.59
2023-11-07T22:33:05.894Z,6.60
2023-11-07T22:35:38.978Z,6.61
2023-11-07T22:38:13.320Z,6.60
2023-11-07T22:40:46.066Z,6.57
2023-11-07T22:43:18.927Z,6.57
2023-11-07T22:45:53.153Z,6.56
2023-11-07T22:48:26.827Z,6.56
2023-11-07T22:51:00.221Z,6.56
2023-11-07T22:53:33.002Z,6.56
2023-11-07T22:56:05.820Z,6.57
2023-11-07T22:58:39.442Z,6.59
2023-11-07T23:01:12.192Z,6.60
2023-11-07T23:03:46.761Z,6.58
2023-11-07T23:06:19.782Z,6.61
2023-11-07T23:08:52.308Z,6.61
2023-11-07T23:11:24.865Z,6.63
2023-11-07T23:13:58.770Z,6.65
2023-11-07T23:16:31.381Z,6.63
2023-11-07T23:19:04.366Z,6.62
2023-11-07T23:21:38.528Z,6.61
2023-11-07T23:24:13.036Z,6.61
2023-11-07T23:26:48.649Z,6.61
2023-11-07T23:29:21.622Z,6.61
2023-11-07T23:31:54.854Z,6.60
2023-11-07T23:34:28.720Z,6.58
2023-11-07T23:37:01.330Z,6.57
2023-11-07T23:39:33.824Z,6.59
2023-11-07T23:42:07.349Z,6.58
2023-11-07T23:44:41.218Z,6.60
2023-11-07T23:47:14.768Z,6.61
2023-11-07T23:49:47.828Z,6.61
2023-11-07T23:52:20.516Z,6.61
2023-11-07T23:54:53.549Z,6.60
2023-11-07T23:57:28.414Z,6.62
